Time;durP1;ratioP1;P1;durP2;ratioP2;P2;SDS_P1;SDS_P2;PMS_P1;PMS_P2;Temp;Humidity;BMP_temperature;BMP_pressure;BME280_temperature;BME280_humidity;BME280_pressure;Samples;Min_cycle;Max_cycle;Signal;HPM_P1;HPM_P2
2022/05/31 00:00:36;;;;;;;11.98;7.72;;;;;;;11.81;85.80;92409.69;5071970;28;20033;-72
2022/05/31 00:03:04;;;;;;;14.65;7.47;;;;;;;11.81;86.04;92409.69;5072195;28;20460;-72
2022/05/31 00:05:30;;;;;;;15.05;8.40;;;;;;;11.81;86.69;92404.44;5071886;28;20036;-72
2022/05/31 00:07:55;;;;;;;18.00;9.40;;;;;;;11.81;86.73;92407.06;5055750;28;20029;-72
2022/05/31 00:10:22;;;;;;;17.15;10.10;;;;;;;11.81;86.66;92403.69;5049834;28;20045;-72
2022/05/31 00:12:48;;;;;;;18.80;11.00;;;;;;;11.81;87.59;92404.44;5051795;28;20554;-72
2022/05/31 00:15:16;;;;;;;19.02;11.10;;;;;;;11.81;87.89;92399.22;5051843;28;20137;-72
2022/05/31 00:17:41;;;;;;;17.17;10.13;;;;;;;11.80;88.09;92397.66;5050478;28;20052;-72
2022/05/31 00:20:09;;;;;;;21.95;10.27;;;;;;;11.83;87.64;92399.69;5033856;28;20034;-72
2022/05/31 00:22:36;;;;;;;17.45;10.43;;;;;;;11.82;87.75;92406.03;5051650;28;20028;-72
2022/05/31 00:25:04;;;;;;;17.65;10.65;;;;;;;11.84;87.95;92403.09;5051608;28;20039;-72
2022/05/31 00:27:30;;;;;;;20.95;10.48;;;;;;;11.86;87.53;92411.44;5050364;28;20035;-72
2022/05/31 00:29:56;;;;;;;24.40;12.07;;;;;;;11.84;87.65;92411.75;5051499;28;20041;-72
2022/05/31 00:32:27;;;;;;;25.90;12.73;;;;;;;11.82;87.41;92416.50;5050355;28;20094;-72
2022/05/31 00:34:55;;;;;;;21.30;12.73;;;;;;;11.80;87.38;92408.16;5055735;28;20398;-72
2022/05/31 00:37:22;;;;;;;21.30;12.18;;;;;;;11.83;88.51;92407.56;5070107;28;20032;-72
2022/05/31 00:39:48;;;;;;;21.17;12.27;;;;;;;11.83;88.60;92406.78;5071497;28;20039;-73
2022/05/31 00:42:17;;;;;;;22.77;12.32;;;;;;;11.84;88.41;92411.75;5070814;28;20036;-72
2022/05/31 00:44:43;;;;;;;26.40;12.75;;;;;;;11.84;88.44;92411.75;5071152;28;20036;-72
2022/05/31 00:47:14;;;;;;;20.38;12.38;;;;;;;11.84;88.04;92411.75;5070402;28;20021;-72
2022/05/31 00:49:56;;;;;;;24.10;13.65;;;;;;;11.79;87.86;92417.09;5071254;28;20044;-72
2022/05/31 00:52:27;;;;;;;;;;;;;;;11.78;87.75;92415.53;5072101;28;20067;-72
2022/05/31 00:55:11;;;;;;;24.63;12.75;;;;;;;11.77;88.06;92416.59;5069532;28;19961;-72
2022/05/31 00:57:43;;;;;;;24.77;13.43;;;;;;;11.77;87.94;92419.22;5069858;28;20041;-72
2022/05/31 01:00:13;;;;;;;24.95;13.63;;;;;;;11.81;88.03;92417.56;5071148;28;20032;-72
2022/05/31 01:02:41;;;;;;;26.25;13.93;;;;;;;11.79;88.22;92424.19;5071383;28;20474;-71
2022/05/31 01:05:08;;;;;;;26.70;12.85;;;;;;;11.76;88.72;92430.78;5071355;28;20052;-72
2022/05/31 01:07:34;;;;;;;25.02;13.13;;;;;;;11.75;88.46;92431.84;5069861;28;20502;-72
2022/05/31 01:10:06;;;;;;;27.17;13.25;;;;;;;11.75;88.42;92431.84;5069786;28;20032;-71
2022/05/31 01:12:44;;;;;;;28.27;14.55;;;;;;;11.73;88.86;92436.63;5070982;28;20135;-72
2022/05/31 01:15:28;;;;;;;26.75;14.80;;;;;;;11.72;88.78;92429.81;5071221;28;20058;-72
2022/05/31 01:18:13;;;;;;;27.60;14.77;;;;;;;11.69;88.64;92432.28;5051156;28;20099;-72
2022/05/31 01:21:00;;;;;;;29.40;15.85;;;;;;;11.66;88.92;92436.22;5036239;28;20124;-72
2022/05/31 01:24:08;;;;;;;27.92;14.15;;;;;;;11.66;89.26;92433.63;5050755;28;20475;-72
2022/05/31 01:26:54;;;;;;;29.35;15.50;;;;;;;11.64;88.83;92431.31;5049714;28;20286;-72
2022/05/31 01:29:25;;;;;;;28.17;15.65;;;;;;;11.63;88.58;92434.97;5050823;28;20039;-72
2022/05/31 01:31:57;;;;;;;30.75;15.82;;;;;;;11.64;88.39;92425.25;5050766;28;20113;-72
2022/05/31 01:34:58;;;;;;;28.98;15.18;;;;;;;11.66;88.47;92428.38;5050804;28;20123;-72
2022/05/31 01:38:07;;;;;;;27.92;15.13;;;;;;;11.63;88.45;92431.59;5011640;28;20088;-72
2022/05/31 01:40:49;;;;;;;29.48;16.77;;;;;;;11.59;88.12;92428.00;5041945;28;20503;-72
2022/05/31 01:43:15;;;;;;;33.78;18.13;;;;;;;11.58;87.81;92431.69;5049282;28;20062;-72
2022/05/31 01:45:54;;;;;;;38.20;19.15;;;;;;;11.60;87.71;92426.94;5050719;28;20024;-72
2022/05/31 01:48:21;;;;;;;32.03;16.95;;;;;;;11.60;88.07;92432.19;5049467;28;20490;-72
2022/05/31 01:50:47;;;;;;;35.65;16.45;;;;;;;11.58;88.32;92431.69;5050909;28;20033;-72
2022/05/31 01:53:15;;;;;;;35.47;18.05;;;;;;;11.57;88.26;92433.56;5050442;28;20040;-72
2022/05/31 01:55:43;;;;;;;33.00;17.23;;;;;;;11.52;88.01;92427.63;5053855;28;20368;-72
2022/05/31 01:58:18;;;;;;;29.88;17.98;;;;;;;11.49;87.90;92438.69;5053095;28;20537;-72
2022/05/31 02:00:44;;;;;;;32.40;16.95;;;;;;;11.48;88.02;92437.91;5059002;28;20397;-72
2022/05/31 02:03:13;;;;;;;35.00;18.67;;;;;;;11.42;89.33;92434.63;5072779;28;20375;-71
2022/05/31 02:05:46;;;;;;;38.47;18.30;;;;;;;11.43;88.94;92436.16;5072924;28;20037;-72
2022/05/31 02:08:14;;;;;;;38.92;19.15;;;;;;;11.38;88.62;92436.25;5072648;28;20033;-72
2022/05/31 02:10:40;;;;;;;36.53;18.77;;;;;;;11.37;88.39;92436.53;5072081;28;20457;-72
2022/05/31 02:13:08;;;;;;;37.92;18.65;;;;;;;11.39;88.35;92437.03;5073992;28;20036;-72
2022/05/31 02:15:33;;;;;;;33.88;18.73;;;;;;;11.37;88.58;92441.78;5074069;28;20405;-72
2022/05/31 02:18:18;;;;;;;33.08;17.20;;;;;;;11.34;87.95;92442.38;5074106;28;20047;-72
2022/05/31 02:20:46;;;;;;;30.90;17.58;;;;;;;11.30;88.11;92447.41;5074226;28;20133;-72
2022/05/31 02:23:12;;;;;;;33.03;17.25;;;;;;;11.25;87.92;92450.91;5073745;28;20099;-72
2022/05/31 02:25:37;;;;;;;27.02;15.93;;;;;;;11.24;87.75;92451.22;5052406;28;20044;-72
2022/05/31 02:28:03;;;;;;;32.05;18.77;;;;;;;11.20;87.85;92450.22;5052546;28;20032;-71
2022/05/31 02:30:29;;;;;;;37.42;20.23;;;;;;;11.18;88.00;92450.50;5052637;28;20040;-72
2022/05/31 02:32:54;;;;;;;36.70;19.95;;;;;;;11.16;87.76;92444.03;5052524;28;20084;-72
2022/05/31 02:35:20;;;;;;;39.53;21.83;;;;;;;11.13;88.00;92448.00;5053631;28;20445;-72
2022/05/31 02:37:46;;;;;;;40.83;21.25;;;;;;;11.12;88.39;92445.66;5052383;28;20037;-72
2022/05/31 02:40:12;;;;;;;36.22;19.55;;;;;;;11.11;88.16;92441.50;5035794;28;20045;-72
2022/05/31 02:42:39;;;;;;;38.60;21.15;;;;;;;11.03;88.05;92443.72;5052195;28;20032;-72
2022/05/31 02:45:07;;;;;;;41.38;22.10;;;;;;;10.97;88.09;92449.34;5053420;28;20037;-72
2022/05/31 02:47:32;;;;;;;40.55;22.00;;;;;;;10.90;88.33;92441.84;5035782;28;20025;-72
2022/05/31 02:49:58;;;;;;;39.45;20.23;;;;;;;10.86;88.57;92443.50;5019186;28;20063;-72
2022/05/31 02:52:24;;;;;;;35.00;19.38;;;;;;;10.81;88.57;92438.34;5035384;28;20032;-71
2022/05/31 02:54:50;;;;;;;35.28;20.48;;;;;;;10.77;88.51;92440.75;5058134;28;20049;-72
2022/05/31 02:57:18;;;;;;;47.13;22.35;;;;;;;10.75;88.72;92440.28;5039607;28;20071;-71
2022/05/31 03:00:14;;;;;;;39.33;23.10;;;;;;;10.73;88.82;92446.84;5073105;28;20055;-71
2022/05/31 03:02:40;;;;;;;40.13;23.35;;;;;;;10.76;89.25;92451.50;5071971;28;20088;-71
2022/05/31 03:05:24;;;;;;;44.88;24.40;;;;;;;10.75;88.96;92442.13;5072945;28;20039;-72
2022/05/31 03:08:08;;;;;;;48.63;23.98;;;;;;;10.74;88.97;92436.09;5072282;28;20132;-71
2022/05/31 03:10:56;;;;;;;43.35;24.10;;;;;;;10.76;89.11;92441.03;5053026;28;20540;-72
2022/05/31 03:13:27;;;;;;;46.65;24.58;;;;;;;10.73;89.28;92441.63;5072773;28;20060;-72
2022/05/31 03:15:57;;;;;;;43.25;23.20;;;;;;;10.68;89.42;92447.72;5072892;28;20035;-71
2022/05/31 03:18:27;;;;;;;45.40;23.48;;;;;;;10.65;89.48;92452.75;5072855;28;20116;-71
2022/05/31 03:20:58;;;;;;;43.33;23.63;;;;;;;10.63;89.75;92455.66;5071542;28;20032;-71
2022/05/31 03:23:44;;;;;;;43.92;23.17;;;;;;;10.64;90.14;92451.97;5071450;28;20032;-71
2022/05/31 03:26:12;;;;;;;46.90;24.50;;;;;;;10.65;90.41;92450.13;5071449;28;20031;-72
2022/05/31 03:28:38;;;;;;;40.20;22.90;;;;;;;10.65;90.03;92456.16;5072651;28;20025;-72
2022/05/31 03:31:04;;;;;;;43.25;23.70;;;;;;;10.63;89.91;92463.53;5071387;28;20071;-71
2022/05/31 03:33:32;;;;;;;36.75;21.52;;;;;;;10.61;89.86;92469.03;5072436;28;20402;-71
2022/05/31 03:35:57;;;;;;;38.25;21.40;;;;;;;10.63;89.90;92466.91;5072448;28;20016;-71
2022/05/31 03:38:31;;;;;;;48.67;25.38;;;;;;;10.67;90.29;92471.56;5055738;28;20048;-71
2022/05/31 03:41:01;;;;;;;46.80;26.40;;;;;;;10.66;90.18;92467.41;5071063;28;20040;-71
2022/05/31 03:43:59;;;;;;;47.28;26.25;;;;;;;10.66;90.47;92470.03;5065558;28;20528;-71
2022/05/31 03:46:43;;;;;;;43.90;25.45;;;;;;;10.66;90.14;92470.03;5073250;28;20047;-71
2022/05/31 03:49:40;;;;;;;44.38;25.20;;;;;;;10.67;89.79;92471.56;5070899;28;20406;-71
2022/05/31 03:52:07;;;;;;;46.10;24.75;;;;;;;10.70;90.29;92465.78;5066267;28;20123;-72
2022/05/31 03:54:42;;;;;;;42.80;23.15;;;;;;;10.71;90.41;92462.06;5049795;28;20056;-71
2022/05/31 03:57:19;;;;;;;39.58;22.30;;;;;;;10.73;90.22;92465.97;5052331;28;20041;-74
2022/05/31 04:00:12;;;;;;;35.42;19.52;;;;;;;10.72;89.79;92466.25;5050858;28;20044;-73
2022/05/31 04:02:55;;;;;;;36.38;20.23;;;;;;;10.72;89.49;92464.41;5052637;28;20110;-73
2022/05/31 04:05:22;;;;;;;36.80;18.48;;;;;;;10.73;89.40;92465.97;5050965;28;20449;-74
2022/05/31 04:07:52;;;;;;;32.85;18.52;;;;;;;10.75;89.16;92463.06;5017677;28;20491;-74
2022/05/31 04:10:18;;;;;;;42.67;20.88;;;;;;;10.77;89.68;92460.94;5050707;28;20071;-74
2022/05/31 04:12:44;;;;;;;38.47;21.20;;;;;;;10.80;89.75;92462.97;5052144;28;20033;-74
2022/05/31 04:15:10;;;;;;;36.58;21.10;;;;;;;10.89;89.77;92455.22;5052257;28;20082;-74
2022/05/31 04:17:36;;;;;;;40.35;22.02;;;;;;;10.92;89.54;92463.31;5049993;28;20037;-74
2022/05/31 04:20:03;;;;;;;34.42;20.10;;;;;;;10.95;89.41;92467.94;5050533;28;20402;-77
2022/05/31 04:22:29;;;;;;;37.78;18.38;;;;;;;11.01;88.98;92468.63;5069745;28;20032;-75
2022/05/31 04:25:10;;;;;;;31.45;17.17;;;;;;;11.11;88.63;92462.47;5041800;28;20127;-74
2022/05/31 04:28:12;;;;;;;40.40;21.67;;;;;;;11.20;88.41;92468.56;5058407;28;20040;-74
2022/05/31 04:30:44;;;;;;;41.58;22.73;;;;;;;11.25;88.43;92471.09;5054506;28;20052;-74
2022/05/31 04:33:48;;;;;;;31.63;19.70;;;;;;;11.29;88.87;92472.06;5071205;28;20502;-75
2022/05/31 04:36:16;;;;;;;33.90;18.95;;;;;;;11.31;88.36;92467.31;5070150;28;20120;-74
2022/05/31 04:38:43;;;;;;;36.33;19.35;;;;;;;11.36;88.50;92472.47;5070196;28;20058;-74
2022/05/31 04:41:23;;;;;;;30.50;18.25;;;;;;;11.38;88.51;92475.56;5070166;28;20043;-74
2022/05/31 04:43:58;;;;;;;28.08;17.38;;;;;;;11.41;88.38;92485.47;5064991;28;20513;-73
2022/05/31 04:46:37;;;;;;;36.20;18.35;;;;;;;11.42;88.08;92481.78;5050084;28;20041;-74
2022/05/31 04:49:26;;;;;;;35.95;17.63;;;;;;;11.44;88.22;92484.91;5042171;28;20102;-74
2022/05/31 04:51:51;;;;;;;33.97;17.73;;;;;;;11.46;88.20;92488.00;5066549;28;20052;-74
2022/05/31 04:54:24;;;;;;;37.10;19.58;;;;;;;11.50;88.46;92490.03;5049823;28;20063;-75
2022/05/31 04:57:04;;;;;;;32.53;19.27;;;;;;;11.52;88.21;92480.81;5050485;28;20406;-74
2022/05/31 04:59:30;;;;;;;31.13;18.65;;;;;;;11.57;88.54;92478.13;5049605;28;20036;-75
2022/05/31 05:01:56;;;;;;;30.40;16.92;;;;;;;11.67;89.28;92488.38;5050101;28;20548;-74
2022/05/31 05:04:35;;;;;;;31.92;17.00;;;;;;;11.73;88.46;92496.16;5049857;28;20507;-74
2022/05/31 05:07:01;;;;;;;33.50;17.48;;;;;;;11.77;88.08;92495.28;5049651;28;20128;-74
2022/05/31 05:09:27;;;;;;;37.90;19.13;;;;;;;11.81;87.69;92488.38;5049628;28;20500;-74
2022/05/31 05:12:16;;;;;;;39.60;18.33;;;;;;;11.88;87.01;92488.78;5040202;28;20103;-74
2022/05/31 05:14:47;;;;;;;29.08;17.10;;;;;;;11.93;86.52;92495.78;5050125;28;20041;-75
2022/05/31 05:17:15;;;;;;;32.03;15.63;;;;;;;12.01;86.66;92502.19;5049836;28;20037;-75
2022/05/31 05:19:45;;;;;;;31.38;16.58;;;;;;;12.06;86.22;92509.94;5049701;28;20067;-75
2022/05/31 05:22:11;;;;;;;31.30;18.10;;;;;;;12.13;85.83;92499.81;5033086;28;20464;-75
2022/05/31 05:24:37;;;;;;;30.30;18.10;;;;;;;12.22;85.40;92498.06;5050745;28;20041;-75
2022/05/31 05:27:29;;;;;;;31.67;16.97;;;;;;;12.34;85.22;92504.63;5060439;28;20518;-74
2022/05/31 05:33:32;;;;;;;28.02;16.00;;;;;;;12.39;85.18;92502.69;5049320;28;20111;-75
2022/05/31 05:36:18;;;;;;;35.47;15.93;;;;;;;12.42;84.86;92507.34;5040095;28;20134;-75
2022/05/31 05:38:46;;;;;;;28.02;16.42;;;;;;;12.45;85.36;92506.75;5036998;28;20496;-75
2022/05/31 05:41:34;;;;;;;32.92;16.85;;;;;;;12.52;84.40;92511.59;5054517;28;20056;-74
2022/05/31 05:44:18;;;;;;;38.88;20.23;;;;;;;12.51;83.15;92512.66;5053542;28;20070;-75
2022/05/31 05:46:45;;;;;;;32.70;18.60;;;;;;;12.45;82.00;92516.47;5054122;28;20522;-75
2022/05/31 05:49:11;;;;;;;38.38;20.58;;;;;;;12.35;81.68;92516.69;5053473;28;20063;-75
2022/05/31 05:51:38;;;;;;;38.92;20.80;;;;;;;12.36;82.87;92518.25;5020457;28;20041;-75
2022/05/31 05:54:21;;;;;;;34.45;19.85;;;;;;;12.43;83.99;92521.25;5054166;28;20068;-74
2022/05/31 05:57:16;;;;;;;38.75;19.35;;;;;;;12.56;83.97;92515.16;5017147;28;20472;-75
2022/05/31 06:00:01;;;;;;;42.25;21.35;;;;;;;12.69;83.37;92516.97;5039167;28;20055;-75
2022/05/31 06:02:52;;;;;;;45.15;22.33;;;;;;;12.82;83.08;92514.59;5061527;28;20052;-74
2022/05/31 06:05:33;;;;;;;41.00;21.05;;;;;;;13.11;82.75;92506.28;5054844;28;20061;-74
2022/05/31 06:08:13;;;;;;;43.38;21.05;;;;;;;13.38;81.00;92505.38;5069384;28;20040;-74
2022/05/31 06:11:04;;;;;;;43.63;21.30;;;;;;;14.13;77.85;92508.09;5054561;28;20491;-74
2022/05/31 06:13:39;;;;;;;43.97;22.38;;;;;;;14.97;74.53;92504.28;5037251;28;20465;-74
2022/05/31 06:16:06;;;;;;;38.65;21.40;;;;;;;15.61;69.48;92500.09;5069213;28;20041;-73
2022/05/31 06:18:40;;;;;;;27.15;13.75;;;;;;;15.73;71.20;92518.69;5036228;28;20037;-75
2022/05/31 06:21:08;;;;;;;27.52;14.55;;;;;;;15.31;72.07;92502.66;5052934;28;20037;-74
2022/05/31 06:23:37;;;;;;;26.77;13.60;;;;;;;14.92;74.92;92501.03;5052394;28;20040;-74
2022/05/31 06:26:05;;;;;;;26.75;15.02;;;;;;;14.99;74.29;92493.41;5053902;28;20036;-74
2022/05/31 06:28:36;;;;;;;24.08;13.20;;;;;;;14.98;75.70;92494.50;5052415;28;20041;-74
2022/05/31 06:31:02;;;;;;;23.45;13.98;;;;;;;15.12;74.75;92503.00;5035845;28;20506;-74
2022/05/31 06:33:28;;;;;;;25.48;13.77;;;;;;;15.14;74.13;92510.59;5035660;28;20047;-74
2022/05/31 06:35:54;;;;;;;27.05;14.80;;;;;;;15.23;73.20;92503.44;5054591;28;20094;-74
2022/05/31 06:38:21;;;;;;;26.27;15.90;;;;;;;15.31;70.87;92510.59;5037654;28;20182;-75
2022/05/31 06:40:52;;;;;;;39.42;19.33;;;;;;;15.44;68.79;92510.69;5070137;28;20044;-75
2022/05/31 06:43:51;;;;;;;46.63;19.60;;;;;;;15.54;67.80;92510.34;5052091;28;20471;-75
2022/05/31 06:46:36;;;;;;;33.13;17.50;;;;;;;15.75;69.37;92505.19;5052968;28;20067;-74
2022/05/31 06:49:20;;;;;;;47.50;20.08;;;;;;;15.65;69.10;92508.91;5067129;28;20051;-74
2022/05/31 06:58:12;;;;;;;47.33;20.92;;;;;;;15.06;72.23;92522.69;5050552;28;20125;-74
2022/05/31 07:00:43;;;;;;;41.05;21.73;;;;;;;14.97;70.73;92525.38;5051184;28;20541;-74
2022/05/31 07:03:09;;;;;;;41.60;20.83;;;;;;;15.01;71.94;92528.13;5065087;28;20041;-74
2022/05/31 07:05:38;;;;;;;34.58;18.45;;;;;;;15.25;70.68;92537.44;5051880;28;20395;-74
2022/05/31 07:08:06;;;;;;;40.67;20.38;;;;;;;14.95;69.64;92532.81;5057212;28;20040;-74
2022/05/31 07:10:50;;;;;;;49.63;23.77;;;;;;;15.10;70.24;92533.41;5073097;28;20517;-75
2022/05/31 07:13:17;;;;;;;32.50;18.20;;;;;;;15.11;71.13;92530.47;5066261;28;20037;-74
2022/05/31 07:16:02;;;;;;;24.52;13.50;;;;;;;15.12;72.63;92534.63;5051916;28;20063;-74
2022/05/31 07:18:51;;;;;;;37.63;16.00;;;;;;;14.94;73.22;92527.84;5052301;28;20675;-75
2022/05/31 07:21:17;;;;;;;25.08;13.63;;;;;;;15.09;74.58;92526.59;5065657;28;20033;-74
2022/05/31 07:23:42;;;;;;;25.67;12.77;;;;;;;15.34;74.44;92527.63;5054479;28;20478;-74
2022/05/31 07:26:11;;;;;;;27.15;14.43;;;;;;;15.70;72.11;92523.81;5034663;28;20141;-75
2022/05/31 07:28:37;;;;;;;32.17;15.57;;;;;;;16.00;69.79;92521.97;5034829;28;20043;-75
2022/05/31 07:31:05;;;;;;;26.35;13.55;;;;;;;16.07;70.91;92519.63;5060915;28;20344;-75
2022/05/31 07:33:35;;;;;;;21.80;13.50;;;;;;;16.14;71.74;92519.88;5056599;28;20568;-74
2022/05/31 07:36:04;;;;;;;25.80;12.40;;;;;;;15.99;72.14;92505.38;5065356;28;20036;-74
2022/05/31 07:38:32;;;;;;;19.58;11.40;;;;;;;15.96;72.06;92513.94;5071225;28;20110;-74
2022/05/31 07:40:59;;;;;;;23.08;12.38;;;;;;;15.73;72.52;92512.63;5071053;28;20032;-74
2022/05/31 07:43:25;;;;;;;18.50;11.02;;;;;;;15.70;73.98;92508.75;5052115;28;20415;-75
2022/05/31 07:46:06;;;;;;;22.33;12.32;;;;;;;16.28;71.67;92517.03;5063664;28;20033;-73
2022/05/31 07:48:35;;;;;;;21.13;11.63;;;;;;;16.20;71.14;92515.19;5050958;28;20039;-74
2022/05/31 07:51:12;;;;;;;31.33;13.48;;;;;;;16.27;70.03;92512.06;5051317;28;20063;-74
2022/05/31 07:54:13;;;;;;;29.40;14.43;;;;;;;16.17;70.94;92521.13;5051053;28;20593;-75
2022/05/31 07:57:06;;;;;;;30.42;16.45;;;;;;;16.36;68.54;92513.53;5046841;28;20407;-75
2022/05/31 07:59:50;;;;;;;25.33;14.27;;;;;;;16.65;68.75;92514.59;5051795;28;20090;-74
2022/05/31 08:02:34;;;;;;;27.30;15.55;;;;;;;16.67;69.19;92511.63;5058459;28;20059;-75
2022/05/31 08:05:01;;;;;;;29.23;15.50;;;;;;;16.61;68.28;92517.09;5034017;28;20125;-75
2022/05/31 08:07:26;;;;;;;31.65;17.65;;;;;;;16.60;66.83;92509.50;5051465;28;20163;-74
2022/05/31 08:09:52;;;;;;;26.20;14.45;;;;;;;16.48;69.10;92504.91;5050729;28;20036;-74
2022/05/31 08:12:17;;;;;;;36.45;18.85;;;;;;;16.43;67.93;92503.22;5051819;28;20040;-74
2022/05/31 08:14:43;;;;;;;32.28;18.05;;;;;;;16.45;65.53;92505.56;5053844;28;20399;-75
2022/05/31 08:17:10;;;;;;;35.15;18.30;;;;;;;16.58;66.34;92499.25;5065157;28;20060;-74
2022/05/31 08:19:37;;;;;;;35.67;18.42;;;;;;;16.65;66.67;92498.75;5034021;28;20483;-74
2022/05/31 08:22:03;;;;;;;46.83;14.00;;;;;;;16.66;65.81;92500.28;5062494;28;20046;-75
2022/05/31 08:24:29;;;;;;;37.28;19.02;;;;;;;16.62;64.60;92504.69;5052892;28;20051;-74
2022/05/31 08:26:55;;;;;;;31.33;17.55;;;;;;;17.06;65.23;92510.41;5069671;28;20032;-75
2022/05/31 08:29:22;;;;;;;30.60;16.75;;;;;;;16.96;64.76;92506.28;5067092;28;20136;-74
2022/05/31 08:31:48;;;;;;;33.63;18.98;;;;;;;16.64;66.25;92513.06;5070958;28;20056;-75
2022/05/31 08:34:14;;;;;;;28.77;16.50;;;;;;;16.98;64.65;92511.25;5054994;28;20524;-75
2022/05/31 08:36:40;;;;;;;26.00;13.73;;;;;;;17.20;65.23;92504.81;5032631;28;20036;-75
2022/05/31 08:39:05;;;;;;;43.28;19.05;;;;;;;17.19;64.58;92516.50;5051258;28;20160;-75
2022/05/31 08:41:36;;;;;;;27.00;13.00;;;;;;;17.16;64.77;92510.00;5050186;28;20037;-75
2022/05/31 08:44:35;;;;;;;33.63;17.02;;;;;;;17.36;64.94;92510.25;5048533;28;20075;-75
2022/05/31 08:47:12;;;;;;;34.38;18.67;;;;;;;17.59;64.51;92519.38;5050252;28;20044;-75
2022/05/31 08:52:56;;;;;;;23.95;13.57;;;;;;;17.82;64.25;92521.63;5064262;28;20040;-74
2022/05/31 08:58:28;;;;;;;38.83;21.33;;;;;;;17.67;59.92;92520.34;5049268;28;20064;-75
2022/05/31 09:00:57;;;;;;;42.28;21.83;;;;;;;17.77;59.82;92532.41;5060206;28;20043;-75
2022/05/31 09:03:26;;;;;;;40.83;22.40;;;;;;;17.90;60.66;92531.34;5048517;28;20107;-74
2022/05/31 09:06:06;;;;;;;37.33;20.95;;;;;;;17.81;59.54;92523.50;5050952;28;20056;-74
2022/05/31 09:08:32;;;;;;;38.08;21.58;;;;;;;18.05;59.49;92533.31;5062768;28;20131;-75
2022/05/31 09:11:10;;;;;;;30.20;18.10;;;;;;;17.81;60.44;92517.38;5053391;28;20120;-74
2022/05/31 09:13:56;;;;;;;43.13;21.70;;;;;;;17.72;61.58;92527.31;5049767;28;20052;-74
2022/05/31 09:16:58;;;;;;;38.75;22.10;;;;;;;18.14;59.62;92527.91;5050143;28;20037;-75
2022/05/31 09:19:32;;;;;;;;;;;;;;;18.58;57.59;92517.50;5050226;28;20064;-75
2022/05/31 09:22:01;;;;;;;36.08;18.95;;;;;;;18.34;56.48;92523.59;5049976;28;19912;-75
2022/05/31 09:24:27;;;;;;;32.75;18.05;;;;;;;18.14;59.76;92513.91;5065528;28;20021;-75
2022/05/31 09:27:06;;;;;;;38.60;18.85;;;;;;;18.16;60.44;92517.00;5050353;28;20037;-75
2022/05/31 09:29:44;;;;;;;30.35;18.15;;;;;;;18.00;62.07;92520.31;5049847;28;20082;-74
2022/05/31 09:32:57;;;;;;;34.30;13.98;;;;;;;17.39;62.06;92523.63;5049398;28;20037;-75
2022/05/31 09:35:52;;;;;;;38.70;21.58;;;;;;;16.95;64.83;92523.25;5029283;28;20046;-75
2022/05/31 09:38:36;;;;;;;38.20;21.13;;;;;;;16.98;66.45;92527.13;5046648;28;20128;-75
2022/05/31 09:41:24;;;;;;;36.83;21.20;;;;;;;16.70;68.01;92518.91;5060776;28;20119;-74
2022/05/31 09:44:09;;;;;;;38.20;20.58;;;;;;;16.25;69.88;92533.50;5052922;28;20504;-74
2022/05/31 09:46:44;;;;;;;42.22;22.92;;;;;;;15.80;70.08;92534.03;5060481;28;20028;-74
2022/05/31 09:49:26;;;;;;;35.17;21.73;;;;;;;15.81;70.67;92519.75;5048206;28;20479;-75
2022/05/31 09:51:52;;;;;;;36.50;20.67;;;;;;;16.15;70.10;92528.59;5051666;28;20042;-74
2022/05/31 09:57:19;;;;;;;35.00;21.50;;;;;;;16.46;69.34;92528.25;5065139;28;20361;-75
2022/05/31 10:00:18;;;;;;;35.28;20.73;;;;;;;16.57;70.91;92533.91;5045834;28;20045;-75
2022/05/31 10:03:04;;;;;;;49.10;26.17;;;;;;;16.24;70.22;92540.66;5066368;28;20044;-75
2022/05/31 10:05:30;;;;;;;44.33;23.00;;;;;;;16.47;70.92;92539.59;5063024;28;20033;-75
2022/05/31 10:07:57;;;;;;;38.55;23.00;;;;;;;16.83;68.53;92536.41;5051747;28;20039;-74
2022/05/31 10:10:28;;;;;;;40.33;21.83;;;;;;;17.04;68.61;92539.81;5049062;28;20037;-75
2022/05/31 10:13:09;;;;;;;45.10;24.85;;;;;;;16.67;69.13;92533.56;5035290;28;20389;-75
2022/05/31 10:15:44;;;;;;;37.78;22.98;;;;;;;16.90;68.91;92530.59;5033487;28;20063;-75
2022/05/31 10:18:28;;;;;;;39.55;23.27;;;;;;;17.02;68.69;92533.28;5052342;28;20048;-75
2022/05/31 10:21:05;;;;;;;41.28;23.25;;;;;;;16.95;68.29;92535.69;5071920;28;20047;-75
2022/05/31 10:23:45;;;;;;;43.25;24.42;;;;;;;16.96;68.68;92526.69;5062314;28;20055;-75
2022/05/31 10:26:33;;;;;;;46.78;25.67;;;;;;;16.70;68.56;92527.59;5051733;28;20053;-74
2022/05/31 10:29:29;;;;;;;43.85;24.70;;;;;;;16.83;68.72;92528.47;5057282;28;20128;-75
2022/05/31 10:32:26;;;;;;;53.92;25.58;;;;;;;17.09;67.64;92530.91;5051875;28;20037;-75
2022/05/31 10:35:26;;;;;;;36.90;19.20;;;;;;;16.86;68.23;92541.03;5052231;28;20060;-75
2022/05/31 10:37:57;;;;;;;38.80;20.35;;;;;;;16.67;69.85;92533.56;5052577;28;20036;-75
2022/05/31 10:40:40;;;;;;;37.25;19.05;;;;;;;16.68;69.46;92532.44;5052314;28;20541;-75
2022/05/31 10:43:30;;;;;;;40.83;20.23;;;;;;;16.69;67.93;92539.28;5051661;28;20510;-75
2022/05/31 10:45:56;;;;;;;30.98;18.42;;;;;;;16.74;68.76;92539.09;5062948;28;20448;-75
2022/05/31 10:48:24;;;;;;;35.33;18.33;;;;;;;16.67;69.68;92540.72;5072949;28;20035;-75
2022/05/31 10:51:17;;;;;;;35.85;20.13;;;;;;;16.64;69.91;92542.91;5061614;28;20036;-74
2022/05/31 10:54:02;;;;;;;36.97;20.70;;;;;;;16.77;68.81;92542.94;5071041;28;20455;-75
2022/05/31 10:56:42;;;;;;;37.10;21.15;;;;;;;17.01;68.53;92543.09;5050852;28;20158;-75
2022/05/31 10:59:27;;;;;;;37.28;20.60;;;;;;;17.32;67.59;92535.84;5051722;28;20041;-75
2022/05/31 11:02:40;;;;;;;39.20;20.75;;;;;;;17.61;66.11;92538.34;5060271;28;20047;-75
2022/05/31 11:05:15;;;;;;;35.63;19.13;;;;;;;17.77;67.17;92529.78;5072675;28;20476;-75
2022/05/31 11:11:30;;;;;;;40.92;20.38;;;;;;;17.83;65.53;92542.50;5069164;28;20033;-75
2022/05/31 11:14:50;;;;;;;34.45;19.08;;;;;;;17.44;64.70;92533.22;5055742;28;20044;-74
2022/05/31 11:17:32;;;;;;;34.60;20.20;;;;;;;17.20;67.64;92531.25;5038553;28;20533;-75
2022/05/31 11:20:37;;;;;;;32.63;18.88;;;;;;;17.12;68.63;92534.78;5057230;28;20049;-75
2022/05/31 11:23:33;;;;;;;34.67;19.92;;;;;;;17.34;68.19;92525.69;5029270;28;20048;-75
2022/05/31 11:25:59;;;;;;;33.03;19.25;;;;;;;17.75;67.44;92531.97;5055833;28;20031;-75
2022/05/31 11:28:36;;;;;;;28.70;15.52;;;;;;;18.01;65.38;92529.03;5051966;28;20037;-75
2022/05/31 11:31:36;;;;;;;33.90;19.48;;;;;;;17.59;65.38;92532.59;5051286;28;20039;-74
2022/05/31 11:34:37;;;;;;;31.55;17.42;;;;;;;17.25;66.13;92534.50;5050658;28;20056;-74
2022/05/31 11:37:26;;;;;;;35.60;18.30;;;;;;;16.98;68.15;92538.47;5051627;28;20036;-75
2022/05/31 11:40:21;;;;;;;35.20;18.88;;;;;;;16.92;69.11;92533.72;5050722;28;20333;-75
2022/05/31 11:43:06;;;;;;;35.42;18.63;;;;;;;16.91;70.03;92537.44;5053449;28;20052;-75
2022/05/31 11:45:49;;;;;;;30.70;16.88;;;;;;;16.67;69.66;92538.84;5054514;28;20032;-75
2022/05/31 11:48:24;;;;;;;27.83;14.63;;;;;;;16.53;69.59;92546.25;5051486;28;20120;-75
2022/05/31 11:51:12;;;;;;;29.63;17.63;;;;;;;16.27;69.94;92541.13;5051642;28;20072;-75
2022/05/31 11:53:54;;;;;;;28.90;14.88;;;;;;;15.96;70.95;92542.97;5050622;28;20041;-74
2022/05/31 11:56:20;;;;;;;42.10;16.67;;;;;;;15.91;71.05;92548.41;5054006;28;20028;-74
2022/05/31 11:59:07;;;;;;;31.27;18.02;;;;;;;15.66;71.51;92550.03;5050624;28;20040;-75
2022/05/31 12:01:46;;;;;;;34.03;17.63;;;;;;;15.77;72.89;92556.56;5059235;28;20032;-75
2022/05/31 12:04:17;;;;;;;28.02;14.13;;;;;;;15.93;72.05;92559.44;5071485;28;20028;-74
2022/05/31 12:06:54;;;;;;;30.45;17.88;;;;;;;15.95;71.46;92557.25;5058693;28;20115;-75
2022/05/31 12:09:30;;;;;;;26.85;16.85;;;;;;;15.92;71.78;92549.19;5070106;28;20040;-75
2022/05/31 12:12:16;;;;;;;32.63;16.75;;;;;;;16.13;70.58;92551.91;5049817;28;20051;-74
2022/05/31 12:15:23;;;;;;;31.73;17.67;;;;;;;15.89;71.18;92549.84;5071099;28;20035;-74
2022/05/31 12:18:17;;;;;;;27.27;14.02;;;;;;;15.93;71.67;92546.25;5054470;28;20036;-79